Time;durP1;ratioP1;P1;durP2;ratioP2;P2;SDS_P1;SDS_P2;PMS_P1;PMS_P2;Temp;Humidity;BMP_temperature;BMP_pressure;BME280_temperature;BME280_humidity;BME280_pressure;Samples;Min_cycle;Max_cycle;Signal;HPM_P1;HPM_P2
2023/05/16 00:01:29;;;;;;;4.13;3.83;;;;;;;11.32;nan;98870.22;6111958;23;20181;-85
2023/05/16 00:03:56;;;;;;;4.17;3.87;;;;;;;11.32;nan;98870.22;6111912;23;20171;-83
2023/05/16 00:06:23;;;;;;;4.57;3.90;;;;;;;11.40;nan;98864.44;6161013;23;20190;-84
2023/05/16 00:08:50;;;;;;;3.90;3.50;;;;;;;11.37;nan;98867.63;6111499;23;20188;-83
2023/05/16 00:11:17;;;;;;;3.53;3.23;;;;;;;11.38;nan;98868.44;6112097;23;20181;-83
2023/05/16 00:13:45;;;;;;;3.47;3.17;;;;;;;11.34;nan;98867.28;6112074;23;20174;-83
2023/05/16 00:16:13;;;;;;;3.90;3.60;;;;;;;11.32;nan;98872.09;6112178;23;20653;-83
2023/05/16 00:18:40;;;;;;;3.67;3.37;;;;;;;11.36;nan;98863.31;6111583;23;20166;-83
2023/05/16 00:21:07;;;;;;;3.37;3.07;;;;;;;11.33;nan;98861.13;6136129;23;20166;-83
2023/05/16 00:23:33;;;;;;;4.03;3.70;;;;;;;11.32;nan;98861.38;6136273;23;20178;-85
2023/05/16 00:26:00;;;;;;;3.67;3.37;;;;;;;11.31;nan;98859.72;6143710;23;20210;-85
2023/05/16 00:28:27;;;;;;;3.50;3.10;;;;;;;11.33;nan;98865.69;6136051;23;20168;-85
2023/05/16 00:30:54;;;;;;;3.63;3.33;;;;;;;11.38;nan;98858.50;6136087;23;20194;-83
2023/05/16 00:33:22;;;;;;;3.50;3.20;;;;;;;11.35;nan;98850.13;6135947;23;20172;-83
2023/05/16 00:35:50;;;;;;;3.50;3.20;;;;;;;11.43;nan;98861.28;6112588;23;20198;-83
2023/05/16 00:38:17;;;;;;;3.20;2.90;;;;;;;11.41;nan;98849.19;6136084;23;20183;-84
2023/05/16 00:40:44;;;;;;;3.10;2.90;;;;;;;11.43;nan;98853.22;6136142;23;20176;-83
2023/05/16 00:43:10;;;;;;;3.00;2.80;;;;;;;11.48;nan;98857.84;6135580;23;20176;-84
2023/05/16 00:45:37;;;;;;;3.00;2.80;;;;;;;11.46;nan;98852.75;6111785;23;20178;-83
2023/05/16 00:48:04;;;;;;;3.10;2.90;;;;;;;11.49;nan;98846.91;6135736;23;20180;-84
2023/05/16 00:50:32;;;;;;;3.33;3.03;;;;;;;11.53;nan;98841.84;6135463;23;20194;-83
2023/05/16 00:52:59;;;;;;;3.30;2.97;;;;;;;11.54;nan;98851.53;6111556;23;20759;-84
2023/05/16 00:55:26;;;;;;;3.03;2.83;;;;;;;11.54;nan;98851.53;6160157;23;20173;-84
2023/05/16 00:57:53;;;;;;;3.00;2.80;;;;;;;11.58;nan;98838.44;6135535;23;20643;-84
2023/05/16 01:00:19;;;;;;;3.30;3.00;;;;;;;11.61;nan;98843.31;6111180;23;20197;-85
2023/05/16 01:02:47;;;;;;;2.83;2.63;;;;;;;11.64;nan;98845.50;6135839;23;20191;-84
2023/05/16 01:05:13;;;;;;;2.70;2.50;;;;;;;11.76;nan;98848.94;6185805;23;20183;-83
2023/05/16 01:07:40;;;;;;;2.77;2.53;;;;;;;11.70;nan;98842.66;6135480;23;20167;-84
2023/05/16 01:10:08;;;;;;;3.10;2.50;;;;;;;11.71;nan;98848.84;6135484;23;20191;-84
2023/05/16 01:12:41;;;;;;;2.60;2.40;;;;;;;11.77;nan;98850.56;6135796;23;20176;-83
2023/05/16 01:15:21;;;;;;;4.07;2.50;;;;;;;11.71;nan;98844.28;6110991;23;20163;-82
2023/05/16 01:18:00;;;;;;;2.80;2.60;;;;;;;11.67;nan;98843.13;6135887;23;20170;-83
2023/05/16 01:20:54;;;;;;;2.60;2.40;;;;;;;11.65;nan;98856.00;6111654;23;20187;-84
2023/05/16 01:23:46;;;;;;;9.20;2.90;;;;;;;11.59;nan;98856.16;6135688;23;20168;-83
2023/05/16 01:26:19;;;;;;;3.20;2.83;;;;;;;11.56;nan;98857.47;6135416;23;20242;-84
2023/05/16 01:28:46;;;;;;;2.83;2.63;;;;;;;11.48;nan;98845.25;6111024;23;20165;-84
2023/05/16 01:31:13;;;;;;;2.77;2.50;;;;;;;11.47;nan;98848.22;6110976;23;20226;-83
2023/05/16 01:33:40;;;;;;;3.17;2.80;;;;;;;11.48;nan;98844.44;6135177;23;20172;-85
2023/05/16 01:36:20;;;;;;;2.80;2.47;;;;;;;11.44;nan;98844.13;6111398;23;20184;-84
2023/05/16 01:38:46;;;;;;;3.40;2.70;;;;;;;11.51;nan;98840.47;6110972;23;20214;-84
2023/05/16 01:41:48;;;;;;;2.70;2.50;;;;;;;11.53;nan;98832.97;6135269;23;20171;-84
2023/05/16 01:44:20;;;;;;;2.90;2.70;;;;;;;11.50;nan;98831.63;6135131;23;20168;-84
2023/05/16 01:46:47;;;;;;;2.80;2.60;;;;;;;11.47;nan;98821.38;6135358;23;20186;-84
2023/05/16 01:49:18;;;;;;;3.13;2.83;;;;;;;11.48;nan;98806.91;6110355;23;20241;-84
2023/05/16 01:51:49;;;;;;;3.20;3.00;;;;;;;11.43;nan;98809.53;6110838;23;20175;-84
2023/05/16 01:54:18;;;;;;;2.90;2.70;;;;;;;11.38;nan;98810.22;6135254;23;20178;-82
2023/05/16 01:56:51;;;;;;;3.17;2.97;;;;;;;11.33;nan;98810.19;6135184;23;20160;-83
2023/05/16 01:59:20;;;;;;;3.33;3.03;;;;;;;11.35;nan;98816.09;6134993;23;20234;-83
2023/05/16 02:01:47;;;;;;;3.10;2.90;;;;;;;11.35;nan;98821.47;6160317;23;20169;-83
2023/05/16 02:04:14;;;;;;;3.00;2.80;;;;;;;11.33;nan;98828.13;6110674;23;20170;-83
2023/05/16 02:06:41;;;;;;;3.37;3.10;;;;;;;11.32;nan;98832.69;6110864;23;20230;-84
2023/05/16 02:09:08;;;;;;;3.23;3.03;;;;;;;11.30;nan;98833.97;6159657;23;20241;-84
2023/05/16 02:11:39;;;;;;;4.07;2.90;;;;;;;11.28;nan;98836.09;6159358;23;20167;-84
2023/05/16 02:14:05;;;;;;;3.13;2.93;;;;;;;11.26;nan;98840.88;6135011;23;20256;-83
2023/05/16 02:16:37;;;;;;;3.33;3.03;;;;;;;11.29;nan;98845.78;6135182;23;20246;-83
2023/05/16 02:19:04;;;;;;;3.07;2.87;;;;;;;11.27;nan;98837.97;6135318;23;20152;-84
2023/05/16 02:21:31;;;;;;;3.07;2.87;;;;;;;11.26;nan;98839.00;6159241;23;20168;-84
2023/05/16 02:23:57;;;;;;;3.30;3.10;;;;;;;11.23;nan;98839.50;6135121;23;20171;-83
2023/05/16 02:26:25;;;;;;;3.40;3.10;;;;;;;11.28;nan;98836.91;6156207;23;20206;-85
2023/05/16 02:28:53;;;;;;;3.83;3.53;;;;;;;11.24;nan;98835.78;6135194;23;20180;-84
2023/05/16 02:31:31;;;;;;;3.97;3.67;;;;;;;11.26;nan;98844.38;6111721;23;20668;-83
2023/05/16 02:33:58;;;;;;;3.73;3.43;;;;;;;11.21;nan;98846.97;6159382;23;20167;-85
2023/05/16 02:36:26;;;;;;;3.93;3.63;;;;;;;11.20;nan;98848.00;6160067;23;20227;-83
2023/05/16 02:38:53;;;;;;;4.03;3.73;;;;;;;11.19;nan;98835.69;6159271;23;20249;-83
2023/05/16 02:41:21;;;;;;;4.07;3.77;;;;;;;11.18;nan;98817.97;6136530;23;20214;-84
2023/05/16 02:43:48;;;;;;;4.10;3.70;;;;;;;11.25;nan;98804.38;6137164;23;20181;-83
2023/05/16 02:46:21;;;;;;;4.30;3.87;;;;;;;11.26;nan;98789.94;6113211;23;20174;-85
2023/05/16 02:48:49;;;;;;;4.47;4.07;;;;;;;11.18;nan;98793.84;6161402;23;20245;-84
2023/05/16 02:51:16;;;;;;;4.00;3.60;;;;;;;11.14;nan;98798.06;6161316;23;20193;-84
2023/05/16 02:53:43;;;;;;;4.40;4.00;;;;;;;11.09;nan;98808.69;6161629;23;20162;-83
2023/05/16 02:56:10;;;;;;;4.23;3.93;;;;;;;11.09;nan;98811.38;6161442;23;20630;-83
2023/05/16 02:58:38;;;;;;;3.87;3.53;;;;;;;11.08;nan;98814.28;6161641;23;20538;-84
2023/05/16 03:01:05;;;;;;;4.83;4.43;;;;;;;11.09;nan;98808.69;6161351;23;20260;-82
2023/05/16 03:03:34;;;;;;;4.27;3.87;;;;;;;11.11;nan;98803.88;6161343;23;20178;-84
2023/05/16 03:06:01;;;;;;;4.23;3.83;;;;;;;11.08;nan;98801.72;6136933;23;20201;-84
2023/05/16 03:08:28;;;;;;;4.33;4.03;;;;;;;11.04;nan;98789.84;6136607;23;20185;-83
2023/05/16 03:10:55;;;;;;;4.60;4.20;;;;;;;11.04;nan;98776.44;6161127;23;20252;-83
2023/05/16 03:13:22;;;;;;;4.20;3.80;;;;;;;11.14;nan;98775.81;6136638;23;20175;-84
2023/05/16 03:15:49;;;;;;;4.13;3.83;;;;;;;11.09;nan;98773.84;6136591;23;20234;-85
2023/05/16 03:18:16;;;;;;;4.10;3.80;;;;;;;11.03;nan;98769.44;6161607;23;20194;-83
2023/05/16 03:20:43;;;;;;;4.70;4.30;;;;;;;11.06;nan;98776.22;6161278;23;20606;-84
2023/05/16 03:23:10;;;;;;;4.63;4.03;;;;;;;11.04;nan;98781.81;6160754;23;20193;-83
2023/05/16 03:25:37;;;;;;;4.53;4.20;;;;;;;11.07;nan;98791.22;6185594;23;20209;-84
2023/05/16 03:28:06;;;;;;;4.90;4.37;;;;;;;11.07;nan;98799.25;6161318;23;20159;-83
2023/05/16 03:30:34;;;;;;;4.83;4.47;;;;;;;11.13;nan;98795.63;6185596;23;20184;-83
2023/05/16 03:33:00;;;;;;;4.67;4.27;;;;;;;11.12;nan;98788.63;6136300;23;20183;-84
2023/05/16 03:35:27;;;;;;;4.53;4.23;;;;;;;11.15;nan;98794.31;6160563;23;20172;-83
2023/05/16 03:37:54;;;;;;;4.73;4.30;;;;;;;11.22;nan;98796.84;6160905;23;20171;-83
2023/05/16 03:40:22;;;;;;;4.50;4.10;;;;;;;11.23;nan;98801.97;6136378;23;20172;-83
2023/05/16 03:42:49;;;;;;;4.70;4.20;;;;;;;11.28;nan;98799.38;6160887;23;20178;-84
2023/05/16 03:45:16;;;;;;;4.47;4.10;;;;;;;11.30;nan;98807.97;6136129;23;20171;-84
2023/05/16 03:47:43;;;;;;;4.30;3.90;;;;;;;11.37;nan;98821.22;6160736;23;20171;-84
2023/05/16 03:50:10;;;;;;;4.83;4.43;;;;;;;11.43;nan;98823.72;6160452;23;20198;-84
2023/05/16 03:52:36;;;;;;;5.20;4.00;;;;;;;11.49;nan;98830.81;6135408;23;20617;-84
2023/05/16 03:55:04;;;;;;;4.43;4.03;;;;;;;11.57;nan;98821.53;6136548;23;20182;-83
2023/05/16 03:57:32;;;;;;;4.93;4.10;;;;;;;11.61;nan;98811.94;6136771;23;20173;-84
2023/05/16 03:59:59;;;;;;;4.30;4.00;;;;;;;11.61;nan;98800.41;6136779;23;20180;-84
2023/05/16 04:02:26;;;;;;;4.13;3.73;;;;;;;11.66;nan;98789.75;6136208;23;20379;-83
2023/05/16 04:04:52;;;;;;;4.60;3.87;;;;;;;11.70;nan;98794.38;6160848;23;20209;-83
2023/05/16 04:07:19;;;;;;;4.73;4.10;;;;;;;11.77;nan;98791.53;6136281;23;20171;-83
2023/05/16 04:09:50;;;;;;;4.43;4.13;;;;;;;11.88;nan;98790.63;6161212;23;20178;-84
2023/05/16 04:12:17;;;;;;;4.57;4.17;;;;;;;11.89;nan;98779.63;6136254;23;20167;-84
2023/05/16 04:14:43;;;;;;;4.13;3.83;;;;;;;12.01;nan;98795.63;6160636;23;20651;-84
2023/05/16 04:17:11;;;;;;;4.57;4.13;;;;;;;12.11;nan;98798.44;6136509;23;20176;-84
2023/05/16 04:19:38;;;;;;;4.80;4.40;;;;;;;12.22;nan;98818.19;6136450;23;20214;-84
2023/05/16 04:22:05;;;;;;;5.00;4.60;;;;;;;12.32;nan;98821.78;6136724;23;20202;-83
2023/05/16 04:24:32;;;;;;;4.97;4.47;;;;;;;12.43;nan;98828.09;6160614;23;20653;-84
2023/05/16 04:26:59;;;;;;;5.53;5.03;;;;;;;12.51;nan;98822.28;6112242;23;20211;-84
2023/05/16 04:29:26;;;;;;;5.03;4.63;;;;;;;12.63;nan;98806.84;6136140;23;20357;-83
2023/05/16 04:31:53;;;;;;;4.73;4.43;;;;;;;12.77;nan;98818.81;6135672;23;20654;-82
2023/05/16 04:34:20;;;;;;;4.73;4.33;;;;;;;12.89;nan;98831.28;6135324;23;20165;-82
2023/05/16 04:36:46;;;;;;;4.90;4.50;;;;;;;12.97;nan;98836.22;6111841;23;20174;-84
2023/05/16 04:39:13;;;;;;;4.83;4.17;;;;;;;13.02;nan;98841.63;6135463;23;20168;-82
2023/05/16 04:41:40;;;;;;;7.90;7.30;;;;;;;13.05;nan;98843.81;6111362;23;20173;-84
2023/05/16 04:44:07;;;;;;;5.90;5.40;;;;;;;13.07;nan;98838.97;6110778;23;20176;-83
2023/05/16 04:46:34;;;;;;;6.27;5.77;;;;;;;13.10;nan;98850.06;6111193;23;20174;-83
2023/05/16 04:49:01;;;;;;;5.30;4.90;;;;;;;13.08;nan;98852.19;6159380;23;20170;-83
2023/05/16 04:51:28;;;;;;;5.53;5.03;;;;;;;13.14;nan;98859.28;6156118;23;20207;-82
2023/05/16 04:53:54;;;;;;;4.83;4.43;;;;;;;13.16;nan;98851.75;6109611;23;20180;-83
2023/05/16 04:56:21;;;;;;;4.87;4.47;;;;;;;13.20;nan;98854.75;6134100;23;20180;-83
2023/05/16 04:58:48;;;;;;;4.80;4.40;;;;;;;13.29;nan;98852.41;6134388;23;20222;-82
2023/05/16 05:01:15;;;;;;;5.13;4.63;;;;;;;13.32;nan;98841.94;6134290;23;20177;-83
2023/05/16 05:03:42;;;;;;;4.43;4.03;;;;;;;13.48;nan;98832.13;6134254;23;20205;-83
2023/05/16 05:06:10;;;;;;;4.43;3.80;;;;;;;13.60;nan;98841.63;6111042;23;20241;-83
2023/05/16 05:08:37;;;;;;;5.30;4.30;;;;;;;13.67;nan;98850.28;6134577;23;20174;-82
2023/05/16 05:11:03;;;;;;;4.87;4.47;;;;;;;13.83;nan;98861.97;6109991;23;20186;-83
2023/05/16 05:13:30;;;;;;;4.70;4.33;;;;;;;13.95;nan;98854.50;6110345;23;20182;-83
2023/05/16 05:15:57;;;;;;;4.93;4.53;;;;;;;14.05;nan;98851.88;6110068;23;20174;-83
2023/05/16 05:18:23;;;;;;;4.50;3.80;;;;;;;14.23;nan;98864.09;6134347;23;20177;-83
2023/05/16 05:20:51;;;;;;;5.00;4.00;;;;;;;14.33;nan;98866.03;6158716;23;20170;-82
2023/05/16 05:23:19;;;;;;;4.23;3.87;;;;;;;14.38;nan;98871.47;6184984;23;20162;-82
2023/05/16 05:25:46;;;;;;;5.60;4.20;;;;;;;14.37;nan;98859.09;6134119;23;20202;-83
2023/05/16 05:28:13;;;;;;;4.73;4.03;;;;;;;14.32;nan;98862.56;6110142;23;20170;-83
2023/05/16 05:30:39;;;;;;;4.80;4.40;;;;;;;14.41;nan;98854.81;6133955;23;20245;-83
2023/05/16 05:33:10;;;;;;;4.33;4.03;;;;;;;14.48;nan;98858.06;6134476;23;20517;-83
2023/05/16 05:35:37;;;;;;;4.20;3.80;;;;;;;14.49;nan;98857.00;6109809;23;20188;-83
2023/05/16 05:38:05;;;;;;;4.00;3.70;;;;;;;14.67;nan;98861.09;6134766;23;20197;-84
2023/05/16 05:40:31;;;;;;;3.63;3.33;;;;;;;14.85;nan;98868.69;6133749;23;20168;-83
2023/05/16 05:42:58;;;;;;;3.63;3.33;;;;;;;14.88;nan;98870.88;6133792;23;20174;-82
2023/05/16 05:45:25;;;;;;;3.33;3.13;;;;;;;14.92;nan;98870.09;6133413;23;20171;-83
2023/05/16 05:47:52;;;;;;;3.37;3.13;;;;;;;14.97;nan;98862.00;6109396;23;20166;-83
2023/05/16 05:50:19;;;;;;;3.43;3.13;;;;;;;14.93;nan;98852.81;6134083;23;20166;-83
2023/05/16 05:52:45;;;;;;;4.23;3.03;;;;;;;14.89;nan;98853.59;6133542;23;20177;-83
2023/05/16 05:55:12;;;;;;;3.17;2.97;;;;;;;14.89;nan;98849.03;6133363;23;20174;-83
2023/05/16 05:57:39;;;;;;;3.80;2.97;;;;;;;14.89;nan;98853.59;6133802;23;20181;-82
2023/05/16 06:00:06;;;;;;;3.50;3.00;;;;;;;14.91;nan;98856.84;6133628;23;20167;-83
2023/05/16 06:02:33;;;;;;;3.23;2.93;;;;;;;14.97;nan;98845.81;6158554;23;20696;-83
2023/05/16 06:05:00;;;;;;;3.10;2.90;;;;;;;15.03;nan;98835.00;6133771;23;20649;-81
2023/05/16 06:07:27;;;;;;;3.07;2.87;;;;;;;15.04;nan;98842.84;6107176;23;20237;-83
2023/05/16 06:09:54;;;;;;;3.53;3.23;;;;;;;15.17;nan;98842.31;6109729;23;20174;-83
2023/05/16 06:12:21;;;;;;;3.87;3.43;;;;;;;15.29;nan;98839.38;6109423;23;20198;-82
2023/05/16 06:14:47;;;;;;;3.60;3.30;;;;;;;15.32;nan;98836.13;6133899;23;20174;-83
2023/05/16 06:17:14;;;;;;;3.70;3.40;;;;;;;15.35;nan;98849.91;6184193;23;20159;-83
2023/05/16 06:19:41;;;;;;;3.67;3.37;;;;;;;15.30;nan;98847.19;6158418;23;20166;-83
2023/05/16 06:22:08;;;;;;;3.83;3.53;;;;;;;15.47;nan;98846.94;6134402;23;20671;-83
2023/05/16 06:24:34;;;;;;;3.77;3.47;;;;;;;15.61;nan;98845.34;6158082;23;20270;-83
2023/05/16 06:27:01;;;;;;;4.53;4.23;;;;;;;15.68;nan;98829.66;6158778;23;20154;-83
2023/05/16 06:29:28;;;;;;;5.03;4.63;;;;;;;15.68;nan;98826.97;6109098;23;20178;-83
2023/05/16 06:31:54;;;;;;;5.83;5.30;;;;;;;15.75;nan;98824.81;6133502;23;20197;-83
2023/05/16 06:34:26;;;;;;;4.50;4.20;;;;;;;15.93;nan;98836.13;6109662;23;20190;-83
2023/05/16 06:36:53;;;;;;;4.40;4.10;;;;;;;15.95;nan;98839.38;6110095;23;20213;-83
2023/05/16 06:39:20;;;;;;;4.13;3.83;;;;;;;16.17;nan;98842.56;6109392;23;20162;-83
2023/05/16 06:41:47;;;;;;;4.10;3.80;;;;;;;16.34;nan;98831.41;6109363;23;20716;-83
2023/05/16 06:44:15;;;;;;;4.17;3.87;;;;;;;16.41;nan;98829.22;6108716;23;20261;-83
2023/05/16 06:46:41;;;;;;;3.83;3.53;;;;;;;16.27;nan;98826.31;6133412;23;20170;-82
2023/05/16 06:49:08;;;;;;;3.90;3.57;;;;;;;16.18;nan;98836.88;6133754;23;20185;-83
2023/05/16 06:51:35;;;;;;;4.30;4.00;;;;;;;15.90;nan;98829.38;6133457;23;20213;-83
2023/05/16 06:54:02;;;;;;;4.23;3.67;;;;;;;15.90;nan;98833.97;6133768;23;20177;-83
2023/05/16 06:56:30;;;;;;;4.83;4.43;;;;;;;16.11;nan;98849.84;6109826;23;20174;-82
2023/05/16 06:58:57;;;;;;;4.50;4.10;;;;;;;16.29;nan;98840.34;6131386;23;20180;-83
2023/05/16 07:01:24;;;;;;;4.23;3.83;;;;;;;16.46;nan;98837.31;6109023;23;20174;-82
2023/05/16 07:03:51;;;;;;;4.57;4.00;;;;;;;16.43;nan;98829.75;6132759;23;20182;-84
2023/05/16 07:06:18;;;;;;;4.67;4.27;;;;;;;16.44;nan;98825.97;6133159;23;20182;-83
2023/05/16 07:08:45;;;;;;;5.20;4.80;;;;;;;16.37;nan;98833.56;6132137;23;20172;-83
2023/05/16 07:11:11;;;;;;;4.50;4.17;;;;;;;16.30;nan;98839.25;6133379;23;20187;-83
2023/05/16 07:13:38;;;;;;;5.20;4.00;;;;;;;16.17;nan;98839.84;6108923;23;20168;-82
2023/05/16 07:16:06;;;;;;;4.27;3.97;;;;;;;16.11;nan;98833.66;6132805;23;20159;-83
2023/05/16 07:18:33;;;;;;;4.20;3.80;;;;;;;16.12;nan;98831.75;6109411;23;20170;-83
2023/05/16 07:21:00;;;;;;;5.57;4.13;;;;;;;15.87;nan;98838.00;6133202;23;20229;-83
2023/05/16 07:23:27;;;;;;;5.27;4.77;;;;;;;15.75;nan;98843.72;6133276;23;20174;-83
2023/05/16 07:25:54;;;;;;;5.50;4.33;;;;;;;15.75;nan;98841.03;6147556;23;20224;-83
2023/05/16 07:28:21;;;;;;;5.13;3.70;;;;;;;15.67;nan;98851.56;6135535;23;20178;-84
2023/05/16 07:30:48;;;;;;;4.63;3.87;;;;;;;15.63;nan;98853.19;6135474;23;20182;-83
2023/05/16 07:33:15;;;;;;;5.53;4.10;;;;;;;15.66;nan;98849.94;6135447;23;20262;-83
2023/05/16 07:35:42;;;;;;;4.67;3.67;;;;;;;15.64;nan;98855.59;6135316;23;20177;-82
2023/05/16 07:38:09;;;;;;;4.10;3.70;;;;;;;15.60;nan;98856.41;6135584;23;20173;-83
2023/05/16 07:40:36;;;;;;;3.70;3.40;;;;;;;15.60;nan;98868.03;6135680;23;20181;-83
2023/05/16 07:43:03;;;;;;;4.17;3.77;;;;;;;15.64;nan;98885.28;6135337;23;20167;-83
2023/05/16 07:45:29;;;;;;;3.90;3.60;;;;;;;15.64;nan;98888.00;6159731;23;20193;-83
2023/05/16 07:47:58;;;;;;;4.10;3.80;;;;;;;15.68;nan;98894.47;6159837;23;20171;-83
2023/05/16 07:50:26;;;;;;;4.10;3.70;;;;;;;15.66;nan;98909.34;6135447;23;20335;-83
2023/05/16 07:52:52;;;;;;;4.40;4.00;;;;;;;15.65;nan;98921.22;6135769;23;20190;-83
2023/05/16 07:55:21;;;;;;;5.77;5.07;;;;;;;15.67;nan;98927.97;6134787;23;20170;-83
2023/05/16 07:57:48;;;;;;;4.90;4.43;;;;;;;15.67;nan;98935.28;6135620;23;20173;-83
2023/05/16 08:00:16;;;;;;;6.93;5.37;;;;;;;15.55;nan;98935.50;6134830;23;20624;-84
2023/05/16 08:02:43;;;;;;;6.83;6.23;;;;;;;15.36;nan;98935.19;6158171;23;20167;-83
2023/05/16 08:05:10;;;;;;;6.03;5.53;;;;;;;15.23;nan;98922.22;6157676;23;20198;-84
2023/05/16 08:07:36;;;;;;;6.73;6.13;;;;;;;15.10;nan;98932.69;6133270;23;20167;-83
2023/05/16 08:10:04;;;;;;;6.53;5.93;;;;;;;15.09;nan;98939.16;6132451;23;20175;-83
2023/05/16 08:12:31;;;;;;;6.67;6.07;;;;;;;15.11;nan;98947.81;6133155;23;20190;-83
2023/05/16 08:14:57;;;;;;;6.77;6.17;;;;;;;15.11;nan;98948.63;6157082;23;20166;-83
2023/05/16 08:17:24;;;;;;;7.07;6.43;;;;;;;15.11;nan;98951.34;6132351;23;20170;-83
2023/05/16 08:19:51;;;;;;;7.60;6.73;;;;;;;15.19;nan;98956.22;6133486;23;20220;-83
2023/05/16 08:22:18;;;;;;;7.03;6.43;;;;;;;15.21;nan;98948.63;6132108;23;20171;-83
2023/05/16 08:24:45;;;;;;;6.63;6.03;;;;;;;15.23;nan;98940.28;6156424;23;20293;-83
2023/05/16 08:27:11;;;;;;;7.23;6.53;;;;;;;15.29;nan;98950.03;6132716;23;20174;-84
2023/05/16 08:29:38;;;;;;;7.30;6.60;;;;;;;15.18;nan;98938.38;6132219;23;20173;-82
2023/05/16 08:32:07;;;;;;;7.43;6.80;;;;;;;15.38;nan;98930.34;6132837;23;20190;-84
2023/05/16 08:34:34;;;;;;;7.70;7.07;;;;;;;15.42;nan;98926.03;6132355;23;20177;-83
2023/05/16 08:37:01;;;;;;;7.43;6.73;;;;;;;15.57;nan;98924.47;6156627;23;20180;-83
2023/05/16 08:39:29;;;;;;;7.43;6.83;;;;;;;15.65;nan;98921.22;6131682;23;20178;-83
2023/05/16 08:41:57;;;;;;;7.40;6.80;;;;;;;15.58;nan;98916.09;6157124;23;20170;-83
2023/05/16 08:44:24;;;;;;;7.17;6.57;;;;;;;15.79;nan;98916.91;6132629;23;20167;-83
2023/05/16 08:46:52;;;;;;;7.23;6.60;;;;;;;15.88;nan;98907.16;6132197;23;20166;-82
2023/05/16 08:49:19;;;;;;;7.67;6.93;;;;;;;15.68;nan;98904.47;6181358;23;20166;-83
2023/05/16 08:51:47;;;;;;;7.80;7.00;;;;;;;15.70;nan;98894.22;6155151;23;20645;-83
2023/05/16 08:54:15;;;;;;;7.53;6.80;;;;;;;15.76;nan;98888.56;6131884;23;20211;-83
2023/05/16 08:56:43;;;;;;;7.30;6.70;;;;;;;15.68;nan;98883.66;6132080;23;20617;-83
2023/05/16 08:59:13;;;;;;;7.73;7.03;;;;;;;15.43;nan;98875.56;6132613;23;20175;-83
2023/05/16 09:01:40;;;;;;;8.27;7.47;;;;;;;15.31;nan;98875.81;6157229;23;20158;-82
2023/05/16 09:04:08;;;;;;;8.23;7.53;;;;;;;15.04;nan;98866.31;6181204;23;20169;-82
2023/05/16 09:06:35;;;;;;;7.63;6.93;;;;;;;14.90;nan;98871.41;6155725;23;20193;-83
2023/05/16 09:09:03;;;;;;;8.30;7.50;;;;;;;14.98;nan;98854.69;6156231;23;20170;-82
2023/05/16 09:11:30;;;;;;;7.67;6.97;;;;;;;15.03;nan;98859.28;6130910;23;20188;-83
2023/05/16 09:13:57;;;;;;;7.73;7.03;;;;;;;15.29;nan;98851.00;6131938;23;20183;-83
2023/05/16 09:16:24;;;;;;;7.60;6.80;;;;;;;15.07;nan;98855.00;6132467;23;20173;-82
2023/05/16 09:18:58;;;;;;;7.00;6.47;;;;;;;14.77;nan;98853.84;6131320;23;20173;-84
2023/05/16 09:21:30;;;;;;;6.97;5.97;;;;;;;14.85;nan;98872.22;6155806;23;20247;-84
2023/05/16 09:24:05;;;;;;;7.27;5.80;;;;;;;14.74;nan;98867.88;6156117;23;20157;-82
2023/05/16 09:26:33;;;;;;;6.50;5.90;;;;;;;14.63;nan;98881.56;6156171;23;20203;-84
2023/05/16 09:29:01;;;;;;;6.53;5.87;;;;;;;14.57;nan;98875.34;6132583;23;20176;-84
2023/05/16 09:31:36;;;;;;;6.30;5.80;;;;;;;14.27;nan;98869.78;6156820;23;20195;-84
2023/05/16 09:34:06;;;;;;;7.67;6.10;;;;;;;14.17;nan;98870.56;6134520;23;20246;-84
2023/05/16 09:36:33;;;;;;;6.83;6.23;;;;;;;14.34;nan;98873.06;6156251;23;20167;-83
2023/05/16 09:39:00;;;;;;;6.93;6.33;;;;;;;14.31;nan;98870.88;6156010;23;20164;-84
2023/05/16 09:41:27;;;;;;;6.73;6.13;;;;;;;14.28;nan;98874.91;6131704;23;20164;-84
2023/05/16 09:43:54;;;;;;;7.17;6.47;;;;;;;14.08;nan;98885.59;6132187;23;20179;-82
2023/05/16 09:46:25;;;;;;;6.90;6.30;;;;;;;14.02;nan;98894.69;6155527;23;20619;-83
2023/05/16 09:48:51;;;;;;;7.50;6.80;;;;;;;14.07;nan;98902.81;6156087;23;20160;-84
2023/05/16 09:51:21;;;;;;;7.20;6.50;;;;;;;14.06;nan;98903.88;6131775;23;20176;-83
2023/05/16 09:53:48;;;;;;;7.00;6.30;;;;;;;14.02;nan;98902.78;6132088;23;20177;-83
2023/05/16 09:56:15;;;;;;;7.13;6.50;;;;;;;14.01;nan;98898.44;6156160;23;20175;-84
2023/05/16 09:58:43;;;;;;;7.33;6.73;;;;;;;13.91;nan;98907.25;6156459;23;20164;-83
2023/05/16 10:01:10;;;;;;;7.40;6.70;;;;;;;13.91;nan;98911.84;6155774;23;20177;-83
2023/05/16 10:03:38;;;;;;;7.50;6.80;;;;;;;14.02;nan;98917.06;6155697;23;20173;-84
2023/05/16 10:06:06;;;;;;;7.40;6.70;;;;;;;14.13;nan;98919.81;6155899;23;20208;-84
2023/05/16 10:08:35;;;;;;;9.07;7.40;;;;;;;14.25;nan;98933.91;6155420;23;20247;-83
2023/05/16 10:11:04;;;;;;;7.33;6.63;;;;;;;14.25;nan;98929.31;6156080;23;20169;-84
2023/05/16 10:13:32;;;;;;;6.97;6.37;;;;;;;14.28;nan;98926.09;6131945;23;20661;-84
2023/05/16 10:16:06;;;;;;;7.67;6.97;;;;;;;14.16;nan;98913.91;6180134;23;20198;-83
2023/05/16 10:18:34;;;;;;;7.43;6.63;;;;;;;14.28;nan;98918.00;6133033;23;20207;-85
2023/05/16 10:21:05;;;;;;;8.07;7.27;;;;;;;14.13;nan;98927.91;6134518;23;20179;-83
2023/05/16 10:23:34;;;;;;;7.50;6.90;;;;;;;14.30;nan;98928.53;6159888;23;20159;-82
2023/05/16 10:26:03;;;;;;;8.23;7.47;;;;;;;14.42;nan;98927.28;6134076;23;20221;-83
2023/05/16 10:28:30;;;;;;;7.83;7.20;;;;;;;14.46;nan;98935.69;6134796;23;20816;-83
2023/05/16 10:30:57;;;;;;;8.27;7.40;;;;;;;14.52;nan;98930.03;6158552;23;20166;-82
2023/05/16 10:33:24;;;;;;;7.80;7.03;;;;;;;14.71;nan;98922.31;6134220;23;20187;-83
2023/05/16 10:35:52;;;;;;;7.40;6.67;;;;;;;14.69;nan;98918.28;6132479;23;20170;-82
2023/05/16 10:38:19;;;;;;;7.60;6.93;;;;;;;14.78;nan;98919.38;6133204;23;20279;-82
2023/05/16 10:40:46;;;;;;;7.10;6.50;;;;;;;14.75;nan;98915.31;6158078;23;20181;-82
2023/05/16 10:43:25;;;;;;;7.80;7.13;;;;;;;15.01;nan;98913.53;6134303;23;20620;-82
2023/05/16 10:46:01;;;;;;;9.10;6.93;;;;;;;14.93;nan;98928.31;6158865;23;20221;-84
2023/05/16 10:48:35;;;;;;;7.13;6.50;;;;;;;14.89;nan;98927.22;6183907;23;20221;-83
2023/05/16 10:51:03;;;;;;;7.60;6.90;;;;;;;14.83;nan;98924.81;6183499;23;20159;-83
2023/05/16 10:53:32;;;;;;;7.93;7.13;;;;;;;14.84;nan;98924.50;6158878;23;20197;-82
2023/05/16 10:55:59;;;;;;;7.73;6.97;;;;;;;14.79;nan;98927.19;6158812;23;20189;-83
2023/05/16 10:58:32;;;;;;;8.20;7.40;;;;;;;14.80;nan;98928.81;6158742;23;20618;-83
2023/05/16 11:01:17;;;;;;;7.40;6.80;;;;;;;14.88;nan;98932.91;6158515;23;20222;-83
2023/05/16 11:03:56;;;;;;;7.60;6.90;;;;;;;14.94;nan;98911.06;6185006;23;20176;-82
2023/05/16 11:06:43;;;;;;;7.30;6.70;;;;;;;15.01;nan;98910.03;6184813;23;20186;-82
2023/05/16 11:09:13;;;;;;;8.10;7.30;;;;;;;14.96;nan;98902.72;6184567;23;20189;-82
2023/05/16 11:11:45;;;;;;;8.10;7.40;;;;;;;15.13;nan;98892.50;6186410;23;20166;-82
2023/05/16 11:14:21;;;;;;;7.37;6.70;;;;;;;15.24;nan;98882.56;6136715;23;20174;-82
2023/05/16 11:16:53;;;;;;;7.80;7.03;;;;;;;15.19;nan;98863.66;6160585;23;20174;-82
2023/05/16 11:19:52;;;;;;;7.27;6.67;;;;;;;15.18;nan;98857.44;6136126;23;20797;-81
2023/05/16 11:22:20;;;;;;;7.97;7.23;;;;;;;14.93;nan;98860.09;6160275;23;20249;-82
2023/05/16 11:25:03;;;;;;;8.17;7.47;;;;;;;15.05;nan;98865.25;6185956;23;20195;-82
2023/05/16 11:27:34;;;;;;;7.70;7.10;;;;;;;15.01;nan;98861.47;6111354;23;20557;-82
2023/05/16 11:30:04;;;;;;;8.30;7.60;;;;;;;14.98;nan;98874.41;6110945;23;20165;-82
2023/05/16 11:32:36;;;;;;;7.77;7.17;;;;;;;14.86;nan;98865.75;6185875;23;20185;-82
2023/05/16 11:35:04;;;;;;;8.27;7.57;;;;;;;14.82;nan;98863.84;6110983;23;20177;-83
2023/05/16 11:37:31;;;;;;;7.90;7.20;;;;;;;14.78;nan;98868.97;6135807;23;20173;-82
2023/05/16 11:40:06;;;;;;;8.47;7.77;;;;;;;14.80;nan;98866.78;6135192;23;20200;-82
2023/05/16 11:42:35;;;;;;;8.40;7.70;;;;;;;14.89;nan;98853.59;6111309;23;20220;-84
2023/05/16 11:45:07;;;;;;;7.80;7.20;;;;;;;14.94;nan;98842.81;6135108;23;20181;-84
2023/05/16 11:47:38;;;;;;;7.63;7.00;;;;;;;14.90;nan;98842.56;6135577;23;20202;-82
2023/05/16 11:50:12;;;;;;;8.17;7.37;;;;;;;14.93;nan;98852.81;6110803;23;20173;-82
2023/05/16 11:52:43;;;;;;;7.60;6.97;;;;;;;14.97;nan;98848.53;6135121;23;20190;-81
2023/05/16 11:55:10;;;;;;;7.63;7.03;;;;;;;15.41;nan;98859.63;6110513;23;20743;-82
2023/05/16 11:57:37;;;;;;;7.43;6.70;;;;;;;15.64;nan;98847.50;6135285;23;20171;-82